CheckWX is a tool to help pilots better visualize weather data.  It is not intended as a substitute for an official pre-flight weather briefing.

06:45:46 UTC

WBKW TAF
Tawau Airport
Tawau, Malaysia
TAF WBKW 160500Z 1606/1706 35005KT 9999 FEW017

Jun-16@
06:00 UTC

Jun-16 @ 06:00 UTC

Jun-17@
06:00 UTC

Jun-17 @ 06:00 UTC

TAF WBKW 160500Z 1606/1706 35005KT 9999 FEW017
Wind
  • 350° at 5 KTS
Cloud Levels
  • Few at 1,700' AGL